Time;durP1;ratioP1;P1;durP2;ratioP2;P2;SDS_P1;SDS_P2;PMS_P1;PMS_P2;Temp;Humidity;BMP_temperature;BMP_pressure;BME280_temperature;BME280_humidity;BME280_pressure;Samples;Min_cycle;Max_cycle;Signal;HPM_P1;HPM_P2
2022/12/23 00:00:14;;;;;;;69.55;29.67;;;;;;;15.75;71.08;100272.63;5002401;28;20115;-67
2022/12/23 00:02:39;;;;;;;72.18;29.42;;;;;;;16.39;69.29;100275.44;5006877;28;20042;-66
2022/12/23 00:05:05;;;;;;;72.50;30.10;;;;;;;16.13;69.55;100273.09;5003888;28;20395;-67
2022/12/23 00:07:31;;;;;;;73.60;29.55;;;;;;;16.39;68.99;100261.09;5005514;28;20026;-68
2022/12/23 00:09:57;;;;;;;64.38;28.27;;;;;;;16.51;69.06;100265.13;5004343;28;20053;-68
2022/12/23 00:15:08;;;;;;;71.60;29.55;;;;;;;16.87;67.06;100273.91;5005555;28;20099;-69
2022/12/23 00:17:36;;;;;;;77.65;27.88;;;;;;;16.45;67.70;100282.47;5012556;28;20044;-67
2022/12/23 00:20:01;;;;;;;68.90;26.67;;;;;;;16.04;68.97;100286.41;5011864;28;20121;-67
2022/12/23 00:25:12;;;;;;;75.45;28.58;;;;;;;16.15;69.75;100284.47;5011872;28;20524;-68
2022/12/23 00:27:37;;;;;;;76.13;29.80;;;;;;;16.00;69.74;100288.03;5011907;28;20062;-67
2022/12/23 00:30:05;;;;;;;87.22;29.88;;;;;;;16.31;69.38;100292.28;5009805;28;20081;-67
2022/12/23 00:32:30;;;;;;;81.03;30.05;;;;;;;16.02;69.93;100296.69;5012300;28;20064;-68
2022/12/23 00:34:56;;;;;;;74.57;28.00;;;;;;;16.53;68.30;100298.22;5011431;28;20449;-67
2022/12/23 00:37:21;;;;;;;78.75;30.83;;;;;;;16.90;66.22;100294.25;5011501;28;20438;-68
2022/12/23 00:45:15;;;;;;;78.90;31.35;;;;;;;16.01;70.16;100313.25;5011494;28;20052;-68
2022/12/23 00:50:26;;;;;;;84.97;33.17;;;;;;;16.58;67.70;100319.09;5011635;28;20552;-68
2022/12/23 00:52:52;;;;;;;82.45;31.15;;;;;;;16.56;66.94;100311.22;4995148;28;20053;-67
2022/12/23 00:55:17;;;;;;;81.75;30.77;;;;;;;15.89;68.70;100313.53;5011017;28;20038;-67
2022/12/23 00:57:42;;;;;;;87.45;33.55;;;;;;;15.81;69.67;100319.50;5010081;28;20026;-68
2022/12/23 01:00:08;;;;;;;95.20;33.70;;;;;;;15.64;70.79;100330.63;5010967;28;20088;-68
2022/12/23 01:05:36;;;;;;;83.57;31.17;;;;;;;16.01;69.03;100330.31;5011157;28;20533;-69
2022/12/23 01:08:11;;;;;;;82.55;30.92;;;;;;;16.21;68.61;100322.16;5011039;28;20180;-68
2022/12/23 01:10:38;;;;;;;84.38;31.13;;;;;;;16.54;66.73;100332.41;5010780;28;20033;-69
2022/12/23 01:13:04;;;;;;;86.03;30.67;;;;;;;16.67;65.89;100331.81;5011150;28;20041;-68
2022/12/23 01:15:31;;;;;;;76.35;30.98;;;;;;;16.61;66.51;100346.47;5010530;28;20129;-67
2022/12/23 01:17:56;;;;;;;77.38;30.33;;;;;;;16.20;67.21;100357.66;5010518;28;20037;-68
2022/12/23 01:20:21;;;;;;;82.82;31.05;;;;;;;15.81;68.52;100352.00;5011508;28;20068;-66
2022/12/23 01:22:47;;;;;;;75.40;30.35;;;;;;;16.03;67.88;100349.84;5010704;28;20064;-75
2022/12/23 01:25:13;;;;;;;75.70;30.35;;;;;;;16.11;67.59;100343.03;5010723;28;20048;-74
2022/12/23 01:27:38;;;;;;;72.03;30.05;;;;;;;15.79;69.45;100349.56;5011044;28;20090;-75
2022/12/23 01:30:04;;;;;;;68.65;27.65;;;;;;;16.26;67.34;100356.56;5011298;28;20045;-75
2022/12/23 01:32:30;;;;;;;74.03;27.60;;;;;;;16.38;66.55;100357.91;5011371;28;20026;-75
2022/12/23 01:34:55;;;;;;;69.18;29.05;;;;;;;15.68;68.99;100357.97;5011448;28;20398;-74
2022/12/23 01:37:20;;;;;;;67.05;27.27;;;;;;;16.03;67.96;100359.84;5009578;28;20509;-75
2022/12/23 01:39:46;;;;;;;63.50;28.08;;;;;;;16.22;66.18;100363.63;5011090;28;20584;-74
2022/12/23 01:44:59;;;;;;;57.08;25.20;;;;;;;16.58;66.12;100368.75;5011598;28;20036;-74
2022/12/23 01:47:35;;;;;;;63.13;25.60;;;;;;;16.22;67.06;100375.28;5011667;28;20505;-74
2022/12/23 01:50:15;;;;;;;61.00;26.33;;;;;;;16.28;66.58;100376.09;5011534;28;20125;-75
2022/12/23 01:53:07;;;;;;;53.60;25.52;;;;;;;16.05;67.46;100388.31;5011210;28;20038;-75
2022/12/23 01:55:40;;;;;;;47.58;25.05;;;;;;;15.16;71.35;100395.19;5002271;28;20390;-76
2022/12/23 01:58:16;;;;;;;57.22;28.20;;;;;;;14.90;70.92;100399.69;4993875;28;20033;-75
2022/12/23 02:03:41;;;;;;;52.35;27.33;;;;;;;15.40;68.58;100407.19;5011366;28;20044;-74
2022/12/23 02:09:35;;;;;;;48.13;27.98;;;;;;;15.46;68.54;100403.44;4996523;28;20049;-75
2022/12/23 02:12:15;;;;;;;51.88;27.50;;;;;;;15.33;68.83;100409.34;5010574;28;20092;-73
2022/12/23 02:17:49;;;;;;;54.50;27.58;;;;;;;15.66;67.88;100408.91;5002762;28;20609;-74
2022/12/23 02:20:51;;;;;;;67.68;31.63;;;;;;;15.84;66.91;100403.75;5011597;28;20051;-77
2022/12/23 02:23:22;;;;;;;58.80;29.23;;;;;;;15.08;70.14;100415.47;4992506;28;20027;-74
2022/12/23 02:26:15;;;;;;;66.32;34.10;;;;;;;15.05;70.29;100413.31;5002973;28;20107;-76
2022/12/23 02:29:18;;;;;;;67.90;34.53;;;;;;;14.87;70.61;100411.88;5011673;28;20048;-74
2022/12/23 02:31:57;;;;;;;67.70;32.40;;;;;;;15.16;68.98;100425.78;5010923;28;20065;-73
2022/12/23 02:34:42;;;;;;;76.85;38.08;;;;;;;15.07;69.45;100421.97;5007249;28;20038;-75
2022/12/23 02:37:45;;;;;;;70.97;35.38;;;;;;;15.29;68.55;100419.06;4996870;28;20042;-75
2022/12/23 02:40:30;;;;;;;75.53;37.33;;;;;;;15.25;68.56;100423.41;5010741;28;20088;-74
2022/12/23 02:43:19;;;;;;;73.45;35.65;;;;;;;15.27;69.28;100437.47;4995591;28;20140;-74
2022/12/23 02:45:55;;;;;;;70.80;35.42;;;;;;;15.22;68.37;100446.38;4933496;29;20122;-76
2022/12/23 02:48:44;;;;;;;78.00;35.53;;;;;;;14.69;71.46;100444.78;4934488;29;20050;-74
2022/12/23 02:51:13;;;;;;;93.82;39.38;;;;;;;15.54;67.72;100455.19;4921475;29;20054;-75
2022/12/23 02:53:46;;;;;;;74.68;38.28;;;;;;;15.21;68.78;100461.00;4935271;29;20032;-75
2022/12/23 02:56:13;;;;;;;81.55;37.72;;;;;;;15.43;67.57;100458.16;4934639;29;20539;-73
2022/12/23 02:58:44;;;;;;;78.93;37.03;;;;;;;15.02;69.21;100464.44;4934427;29;20142;-74
2022/12/23 03:01:11;;;;;;;;;;;;;;;14.40;71.82;100467.03;4934994;29;20075;-75
2022/12/23 03:03:38;;;;;;;76.88;35.38;;;;;;;14.95;70.16;100467.38;4934496;29;20411;-75
2022/12/23 03:06:35;;;;;;;96.57;38.20;;;;;;;15.77;66.80;100473.66;4934503;29;20043;-75
2022/12/23 03:09:02;;;;;;;83.53;36.30;;;;;;;15.29;68.57;100482.13;4934119;29;20102;-74
2022/12/23 03:11:44;;;;;;;92.72;38.50;;;;;;;15.33;69.00;100485.94;4934486;29;20475;-74
2022/12/23 03:14:30;;;;;;;86.90;39.00;;;;;;;15.32;68.15;100486.22;4934712;29;20043;-74
2022/12/23 03:17:16;;;;;;;87.78;36.75;;;;;;;14.91;69.27;100487.91;4945947;29;20087;-76
2022/12/23 03:19:52;;;;;;;90.40;36.97;;;;;;;15.80;67.25;100494.00;4934204;29;20406;-76
2022/12/23 03:22:31;;;;;;;93.28;37.00;;;;;;;15.23;68.29;100499.47;4959045;28;20422;-73
2022/12/23 03:25:22;;;;;;;86.70;36.22;;;;;;;14.81;69.87;100496.78;4998764;28;20180;-75
2022/12/23 03:28:01;;;;;;;91.25;34.88;;;;;;;15.09;68.96;100494.78;5014302;28;20046;-74
2022/12/23 03:30:29;;;;;;;104.00;38.33;;;;;;;15.17;69.23;100502.41;5013905;28;20065;-74
2022/12/23 03:33:02;;;;;;;94.78;36.17;;;;;;;14.48;71.26;100501.69;5015094;28;20025;-74
2022/12/23 03:35:41;;;;;;;95.80;33.83;;;;;;;15.27;68.43;100505.16;5013916;28;20045;-75
2022/12/23 03:38:10;;;;;;;123.57;34.42;;;;;;;14.60;70.54;100505.81;5014063;28;20026;-74
2022/12/23 03:40:40;;;;;;;120.70;36.42;;;;;;;15.29;68.77;100501.09;5013694;28;20041;-74
2022/12/23 03:43:41;;;;;;;102.40;34.30;;;;;;;14.52;71.63;100509.03;5013633;28;20030;-74
2022/12/23 03:46:14;;;;;;;129.05;32.53;;;;;;;14.31;72.24;100511.84;5013801;28;20045;-75
2022/12/23 03:48:49;;;;;;;92.43;32.10;;;;;;;14.02;73.18;100506.66;5013615;28;20069;-76
2022/12/23 03:51:20;;;;;;;118.63;33.90;;;;;;;13.95;73.84;100503.34;4995153;28;20477;-75
2022/12/23 03:53:55;;;;;;;;;;;;;;;14.38;72.56;100507.00;5014554;28;20445;-75
2022/12/23 03:56:29;;;;;;;106.90;32.08;;;;;;;14.44;71.64;100500.56;5011811;28;19924;-76
2022/12/23 03:58:59;;;;;;;110.95;31.83;;;;;;;13.41;75.49;100504.38;4997252;28;20080;-74
2022/12/23 04:01:49;;;;;;;106.55;32.17;;;;;;;13.83;74.05;100509.97;5012728;28;20547;-75
2022/12/23 04:04:24;;;;;;;79.55;25.65;;;;;;;13.91;73.43;100520.34;5008115;28;20053;-75
2022/12/23 04:07:09;;;;;;;80.68;28.13;;;;;;;13.80;72.64;100523.97;5012850;28;20041;-75
2022/12/23 04:09:35;;;;;;;76.50;26.58;;;;;;;14.53;70.58;100523.34;5012724;28;20077;-73
2022/12/23 04:12:01;;;;;;;75.55;23.83;;;;;;;14.17;70.63;100529.50;5012800;28;20118;-75
2022/12/23 04:14:26;;;;;;;71.90;24.38;;;;;;;14.31;70.49;100530.75;5013479;28;20038;-74
2022/12/23 04:16:56;;;;;;;80.60;23.48;;;;;;;13.93;71.79;100534.41;5012803;28;20033;-74
2022/12/23 04:19:21;;;;;;;77.63;24.25;;;;;;;13.96;71.43;100539.28;4995046;28;20026;-74
2022/12/23 04:21:47;;;;;;;82.35;24.92;;;;;;;14.06;70.42;100540.22;5012786;28;20426;-75
2022/12/23 04:24:12;;;;;;;88.53;27.58;;;;;;;13.70;72.96;100551.69;4994895;28;20494;-75
2022/12/23 04:26:38;;;;;;;86.35;26.45;;;;;;;14.51;69.60;100547.94;5013207;28;20489;-74
2022/12/23 04:29:04;;;;;;;83.75;24.63;;;;;;;14.80;67.80;100549.25;5011525;28;20034;-74
2022/12/23 04:31:29;;;;;;;82.03;25.15;;;;;;;14.54;68.81;100549.31;5013247;28;20036;-75
2022/12/23 04:33:55;;;;;;;82.28;24.77;;;;;;;13.93;70.77;100553.31;5013587;28;20292;-74
2022/12/23 04:36:21;;;;;;;96.13;25.42;;;;;;;14.17;69.68;100560.03;5012728;28;20037;-75
2022/12/23 04:38:46;;;;;;;78.18;23.13;;;;;;;14.35;68.67;100556.19;4994091;28;20038;-74
2022/12/23 04:41:11;;;;;;;91.10;26.48;;;;;;;13.95;70.13;100553.88;5011754;28;20038;-74
2022/12/23 04:43:37;;;;;;;90.90;24.33;;;;;;;14.33;68.97;100561.84;5012140;28;20069;-75
2022/12/23 04:46:02;;;;;;;76.13;23.67;;;;;;;14.74;67.78;100554.91;5012213;28;20498;-75
2022/12/23 04:48:27;;;;;;;90.55;23.20;;;;;;;14.06;69.66;100574.50;5012427;28;20033;-68
2022/12/23 04:50:53;;;;;;;86.05;23.70;;;;;;;14.36;69.40;100563.22;5012021;28;20084;-67
2022/12/23 04:53:18;;;;;;;94.55;23.73;;;;;;;14.72;67.24;100559.75;5011486;28;20137;-67
2022/12/23 04:55:48;;;;;;;90.28;24.02;;;;;;;15.04;66.67;100570.50;5011187;28;20192;-67
2022/12/23 04:58:14;;;;;;;87.18;24.65;;;;;;;14.48;67.91;100577.41;5011141;28;20037;-68
2022/12/23 05:00:39;;;;;;;86.97;23.15;;;;;;;14.56;68.79;100574.22;4993574;28;20494;-68
2022/12/23 05:03:05;;;;;;;93.75;23.08;;;;;;;15.21;66.02;100572.00;5007385;28;20099;-67
2022/12/23 05:05:30;;;;;;;89.28;22.60;;;;;;;14.16;69.23;100573.81;5010915;28;20104;-67
2022/12/23 05:08:02;;;;;;;83.72;21.45;;;;;;;14.81;66.67;100569.00;5010380;28;20034;-67
2022/12/23 05:10:27;;;;;;;81.82;21.00;;;;;;;14.47;67.18;100562.22;5010401;28;20053;-67
2022/12/23 05:12:53;;;;;;;84.05;21.63;;;;;;;14.82;66.78;100555.22;5010351;28;20132;-68
2022/12/23 05:15:18;;;;;;;82.50;21.92;;;;;;;14.68;67.19;100559.44;5010256;28;20479;-68
2022/12/23 05:17:43;;;;;;;63.83;17.00;;;;;;;14.85;66.45;100557.41;5011262;28;20117;-67
2022/12/23 05:20:09;;;;;;;56.97;17.77;;;;;;;14.92;65.59;100558.00;5008657;28;20041;-67
2022/12/23 05:22:34;;;;;;;58.85;18.38;;;;;;;14.42;67.15;100560.31;5010357;28;20038;-68
2022/12/23 05:25:00;;;;;;;56.72;16.83;;;;;;;15.13;64.81;100561.66;5010956;28;20095;-68
2022/12/23 05:27:25;;;;;;;63.78;17.45;;;;;;;14.40;67.42;100556.22;5010447;28;20521;-67
2022/12/23 05:29:50;;;;;;;64.30;18.08;;;;;;;13.36;71.57;100549.38;5011252;28;20026;-67
2022/12/23 05:32:16;;;;;;;73.47;20.75;;;;;;;13.97;69.54;100555.22;5010571;28;20125;-67
2022/12/23 05:34:41;;;;;;;61.47;18.30;;;;;;;14.42;68.08;100556.78;5010695;28;20117;-68
2022/12/23 05:37:06;;;;;;;65.13;18.80;;;;;;;14.81;66.23;100561.72;5009348;28;20069;-68
2022/12/23 05:39:32;;;;;;;77.47;20.92;;;;;;;15.01;65.21;100571.03;5010568;28;20044;-70
2022/12/23 05:41:57;;;;;;;66.15;19.92;;;;;;;15.45;63.86;100572.44;5010404;28;20053;-68
2022/12/23 05:44:22;;;;;;;63.63;18.80;;;;;;;15.67;62.82;100582.00;5011162;28;20102;-67
2022/12/23 05:46:48;;;;;;;55.70;19.67;;;;;;;15.73;62.28;100574.69;5009810;28;20438;-69
2022/12/23 05:49:13;;;;;;;62.90;21.10;;;;;;;15.88;62.01;100580.16;5010109;28;20116;-68
2022/12/23 05:51:38;;;;;;;73.95;19.88;;;;;;;15.77;61.94;100583.94;5009612;28;20038;-67
2022/12/23 05:54:04;;;;;;;108.47;22.77;;;;;;;15.37;63.14;100589.94;5011999;28;20034;-68
2022/12/23 05:56:29;;;;;;;98.03;24.27;;;;;;;15.33;63.69;100585.31;5010235;28;20470;-68
2022/12/23 05:58:55;;;;;;;95.35;21.33;;;;;;;15.08;64.27;100588.69;5009609;28;20034;-67
2022/12/23 06:01:20;;;;;;;98.72;21.65;;;;;;;14.36;66.65;100595.66;5006550;28;20030;-66
2022/12/23 06:03:45;;;;;;;149.23;19.58;;;;;;;14.73;65.68;100596.53;5008188;28;20038;-67
2022/12/23 06:06:11;;;;;;;103.30;19.85;;;;;;;14.86;65.08;100599.63;5008965;28;20478;-68
2022/12/23 06:08:36;;;;;;;83.55;18.15;;;;;;;14.82;64.73;100601.22;4991457;28;20030;-68
2022/12/23 06:11:05;;;;;;;71.80;18.75;;;;;;;14.98;64.92;100605.66;5007535;28;20209;-68
2022/12/23 06:13:30;;;;;;;63.47;18.98;;;;;;;14.64;65.75;100604.28;5006770;28;20413;-67
2022/12/23 06:15:55;;;;;;;59.50;18.55;;;;;;;15.04;64.15;100601.09;5010138;28;20038;-67
2022/12/23 06:18:21;;;;;;;51.63;18.00;;;;;;;14.68;64.94;100605.41;5007537;28;20226;-68
2022/12/23 06:20:47;;;;;;;57.60;17.63;;;;;;;14.94;64.87;100614.56;5011702;28;20038;-68
2022/12/23 06:23:12;;;;;;;55.45;18.65;;;;;;;14.92;64.89;100614.00;5013846;28;20030;-67
2022/12/23 06:25:38;;;;;;;57.60;18.77;;;;;;;14.71;65.15;100623.03;5013972;28;20038;-67
2022/12/23 06:28:04;;;;;;;59.33;18.65;;;;;;;15.50;63.38;100618.47;5013287;28;20029;-67
2022/12/23 06:30:29;;;;;;;53.95;17.58;;;;;;;14.87;65.07;100616.66;5013933;28;20034;-69
2022/12/23 06:32:54;;;;;;;55.97;17.67;;;;;;;15.18;63.77;100604.16;5014175;28;20053;-67
2022/12/23 06:35:20;;;;;;;58.45;16.73;;;;;;;15.27;63.85;100606.13;5013583;28;20058;-66
2022/12/23 06:37:45;;;;;;;54.30;18.40;;;;;;;15.18;63.47;100605.00;4979513;28;20502;-68
2022/12/23 06:40:11;;;;;;;56.53;18.45;;;;;;;15.08;63.49;100614.91;5011270;28;20176;-67
2022/12/23 06:42:36;;;;;;;65.93;20.58;;;;;;;15.48;63.40;100621.47;5012789;28;20038;-67
2022/12/23 06:45:02;;;;;;;62.03;19.58;;;;;;;15.51;62.69;100618.22;5013004;28;20060;-68
2022/12/23 06:47:28;;;;;;;61.45;17.50;;;;;;;15.44;62.84;100622.22;5013387;28;20413;-67
2022/12/23 06:49:53;;;;;;;59.08;18.48;;;;;;;15.71;62.27;100621.03;5013378;28;20072;-68
2022/12/23 06:52:19;;;;;;;57.25;19.08;;;;;;;15.77;62.11;100627.28;5013382;28;20109;-68
2022/12/23 06:54:44;;;;;;;51.40;19.48;;;;;;;15.66;62.19;100625.59;5013612;28;20477;-69
2022/12/23 06:57:10;;;;;;;53.22;19.50;;;;;;;15.81;62.09;100628.38;5008362;28;20109;-67
2022/12/23 06:59:35;;;;;;;53.47;17.00;;;;;;;15.71;62.04;100631.88;5012867;28;20057;-68
2022/12/23 07:02:02;;;;;;;56.72;17.92;;;;;;;15.78;61.90;100635.13;5012776;28;20057;-69
2022/12/23 07:04:28;;;;;;;52.50;17.75;;;;;;;15.82;61.79;100628.09;5010976;28;20052;-67
2022/12/23 07:06:53;;;;;;;52.30;18.05;;;;;;;15.84;61.91;100634.06;5011655;28;20283;-68
2022/12/23 07:09:18;;;;;;;61.38;19.15;;;;;;;15.67;62.17;100636.19;5012328;28;20509;-66
2022/12/23 07:11:44;;;;;;;53.67;17.83;;;;;;;15.73;61.86;100637.00;5012831;28;20502;-67
2022/12/23 07:14:10;;;;;;;52.13;16.58;;;;;;;15.86;62.02;100641.97;5012240;28;20514;-68
2022/12/23 07:16:35;;;;;;;57.28;19.38;;;;;;;15.46;62.76;100641.75;5012371;28;20113;-67
2022/12/23 07:19:02;;;;;;;59.35;20.13;;;;;;;15.52;62.31;100649.66;5012524;28;20379;-68
2022/12/23 07:21:28;;;;;;;49.78;16.67;;;;;;;15.12;63.88;100652.03;4994013;28;20041;-67
2022/12/23 07:23:53;;;;;;;55.28;17.63;;;;;;;15.67;62.62;100660.56;5012715;28;20485;-68
2022/12/23 07:26:19;;;;;;;63.40;20.40;;;;;;;15.76;62.05;100658.16;5012181;28;20108;-67
2022/12/23 07:28:46;;;;;;;58.90;19.83;;;;;;;15.72;62.09;100673.31;5011807;28;20045;-67
2022/12/23 07:31:12;;;;;;;64.32;18.65;;;;;;;15.43;62.69;100666.66;5011679;28;20402;-67
2022/12/23 07:33:37;;;;;;;62.53;17.90;;;;;;;15.52;62.99;100659.66;4994784;28;20044;-68
2022/12/23 07:36:03;;;;;;;71.30;21.08;;;;;;;15.57;62.49;100662.38;5012634;28;20065;-67
2022/12/23 07:38:28;;;;;;;73.18;20.13;;;;;;;15.79;62.12;100665.75;5012603;28;20025;-67
2022/12/23 07:40:53;;;;;;;78.63;20.90;;;;;;;15.60;62.50;100668.13;5012536;28;20030;-67
2022/12/23 07:43:19;;;;;;;86.22;22.80;;;;;;;15.46;62.66;100668.81;5012017;28;20045;-67
2022/12/23 07:45:44;;;;;;;66.30;20.55;;;;;;;15.61;62.53;100660.78;5012150;28;20046;-66
2022/12/23 07:48:09;;;;;;;78.05;21.75;;;;;;;15.78;61.83;100666.84;5010072;28;20026;-67
2022/12/23 07:50:35;;;;;;;71.15;19.77;;;;;;;15.72;62.07;100660.56;5013430;28;20030;-67
2022/12/23 07:53:02;;;;;;;88.07;21.58;;;;;;;15.82;61.97;100662.53;5012201;28;20049;-67
2022/12/23 07:55:28;;;;;;;94.10;21.05;;;;;;;15.82;61.84;100662.53;5010942;28;20049;-68
2022/12/23 07:57:53;;;;;;;85.60;21.20;;;;;;;15.78;61.68;100667.66;4994150;28;20538;-66
2022/12/23 08:00:19;;;;;;;75.13;21.80;;;;;;;15.87;61.82;100673.38;5011676;28;20520;-68
2022/12/23 08:02:45;;;;;;;70.57;21.05;;;;;;;15.71;62.55;100671.69;4994664;28;20050;-66
2022/12/23 08:05:12;;;;;;;61.22;18.83;;;;;;;15.96;61.62;100669.09;5009800;28;20041;-67
2022/12/23 08:07:38;;;;;;;71.95;19.90;;;;;;;15.98;61.52;100663.41;5011814;28;20038;-68
2022/12/23 08:10:04;;;;;;;75.72;20.63;;;;;;;16.00;61.69;100662.06;5012544;28;20034;-66
2022/12/23 08:12:29;;;;;;;65.22;18.90;;;;;;;16.03;61.68;100664.25;5012030;28;20046;-66
2022/12/23 08:14:55;;;;;;;65.47;19.42;;;;;;;15.97;61.72;100659.88;4994944;28;20151;-67
2022/12/23 08:17:20;;;;;;;59.08;20.58;;;;;;;15.80;62.11;100665.50;5012069;28;20041;-66
2022/12/23 08:19:49;;;;;;;57.55;18.02;;;;;;;16.07;61.45;100661.81;5012259;28;20133;-68
2022/12/23 08:22:14;;;;;;;60.25;19.27;;;;;;;16.07;61.70;100669.94;5012120;28;20045;-67
2022/12/23 08:24:40;;;;;;;55.35;17.40;;;;;;;16.07;61.48;100669.94;5012140;28;20042;-67
2022/12/23 08:27:05;;;;;;;47.38;18.05;;;;;;;16.08;61.60;100655.34;5012061;28;20149;-67
2022/12/23 08:29:30;;;;;;;51.53;18.27;;;;;;;16.10;61.87;100653.13;5012428;28;20080;-67
2022/12/23 08:31:56;;;;;;;54.58;19.08;;;;;;;16.11;61.54;100636.63;5011796;28;20045;-67
2022/12/23 08:34:22;;;;;;;52.85;20.30;;;;;;;16.09;61.76;100643.41;5012226;28;20041;-68
2022/12/23 08:36:47;;;;;;;49.63;19.27;;;;;;;16.23;61.60;100630.97;5012015;28;20128;-67
2022/12/23 08:39:13;;;;;;;44.60;17.42;;;;;;;16.12;62.04;100632.81;5010286;28;20029;-68
2022/12/23 08:41:44;;;;;;;46.75;17.88;;;;;;;16.32;61.24;100632.88;5012396;28;20501;-68
2022/12/23 08:44:09;;;;;;;47.72;19.50;;;;;;;16.28;61.42;100637.22;5011065;28;20034;-66
2022/12/23 08:46:36;;;;;;;43.08;18.83;;;;;;;16.24;61.28;100640.72;5011644;28;20088;-68
2022/12/23 08:49:02;;;;;;;44.63;17.20;;;;;;;16.21;61.85;100622.28;5010152;28;20481;-67
2022/12/23 08:51:28;;;;;;;51.20;17.40;;;;;;;16.25;61.39;100631.53;5011818;28;20040;-66
2022/12/23 08:53:55;;;;;;;42.08;17.17;;;;;;;16.30;61.56;100628.81;5010576;28;20049;-66
2022/12/23 08:56:23;;;;;;;41.53;16.90;;;;;;;16.30;61.46;100632.34;4993738;28;20042;-66
2022/12/23 08:58:51;;;;;;;44.75;16.48;;;;;;;16.20;61.75;100624.19;5010987;28;20112;-67
2022/12/23 09:01:22;;;;;;;51.47;18.80;;;;;;;16.30;61.66;100621.50;5011506;28;20038;-66
2022/12/23 09:03:48;;;;;;;44.22;17.02;;;;;;;16.27;61.46;100626.66;4994585;28;20169;-67
2022/12/23 09:06:24;;;;;;;51.58;18.02;;;;;;;16.31;61.84;100627.75;4998351;28;20541;-67
2022/12/23 09:08:50;;;;;;;44.00;16.48;;;;;;;16.34;61.52;100622.59;5011838;28;20037;-67
2022/12/23 09:11:19;;;;;;;41.22;17.08;;;;;;;16.27;61.70;100611.19;5011347;28;20041;-68
2022/12/23 09:13:45;;;;;;;40.20;17.75;;;;;;;16.37;61.61;100604.97;5011503;28;20109;-67
2022/12/23 09:16:11;;;;;;;45.03;17.40;;;;;;;16.26;61.80;100600.59;5010907;28;20402;-67
2022/12/23 09:18:36;;;;;;;40.65;16.95;;;;;;;16.36;61.65;100595.19;5011169;28;20033;-67
2022/12/23 09:21:07;;;;;;;38.47;16.95;;;;;;;16.45;61.45;100597.09;5011301;28;20436;-67
2022/12/23 09:23:33;;;;;;;34.00;15.73;;;;;;;16.35;61.20;100593.56;5010264;28;20132;-66
2022/12/23 09:25:59;;;;;;;41.83;17.48;;;;;;;16.35;61.66;100596.28;5011263;28;20041;-67
2022/12/23 09:28:25;;;;;;;43.30;17.08;;;;;;;16.41;61.52;100595.22;5010897;28;20117;-67
2022/12/23 09:30:51;;;;;;;48.80;18.02;;;;;;;16.25;62.04;100593.56;5010794;28;20042;-67
2022/12/23 09:33:17;;;;;;;46.30;16.80;;;;;;;16.39;61.61;100594.66;5010834;28;20042;-67
2022/12/23 09:35:43;;;;;;;47.38;16.88;;;;;;;16.39;61.81;100590.03;5011211;28;20135;-65
2022/12/23 09:38:08;;;;;;;41.30;16.38;;;;;;;16.69;61.04;100581.13;5010839;28;20129;-66
2022/12/23 09:40:36;;;;;;;42.55;16.35;;;;;;;16.53;61.41;100560.50;5010975;28;20502;-68
2022/12/23 09:43:27;;;;;;;37.97;15.80;;;;;;;16.59;61.14;100570.28;5010724;28;20050;-66
2022/12/23 09:46:07;;;;;;;;;;;;;;;16.39;61.89;100568.34;5011411;28;20064;-66
2022/12/23 09:48:46;;;;;;;37.67;15.43;;;;;;;16.49;61.60;100579.22;5010698;28;19917;-67
2022/12/23 09:51:13;;;;;;;51.28;16.50;;;;;;;16.06;62.48;100573.47;5010996;28;20181;-66
2022/12/23 09:53:59;;;;;;;47.17;17.88;;;;;;;16.19;62.40;100565.63;5011329;28;20506;-67
2022/12/23 09:56:50;;;;;;;38.90;16.67;;;;;;;16.53;61.73;100560.50;5014529;28;20045;-67
2022/12/23 09:59:30;;;;;;;39.65;17.45;;;;;;;16.39;61.87;100560.22;5014527;28;20410;-67
2022/12/23 10:02:22;;;;;;;40.40;16.50;;;;;;;16.66;61.42;100560.00;5014860;28;20065;-67
2022/12/23 10:04:54;;;;;;;40.00;15.27;;;;;;;16.34;62.27;100570.25;5014755;28;20502;-66
2022/12/23 10:07:27;;;;;;;37.30;15.30;;;;;;;16.30;62.01;100566.44;5014670;28;20097;-67
2022/12/23 10:09:55;;;;;;;33.28;13.93;;;;;;;16.57;61.57;100575.16;4996801;28;20144;-66
2022/12/23 10:12:29;;;;;;;33.30;14.48;;;;;;;16.40;62.21;100574.59;5014643;28;20057;-66
2022/12/23 10:15:00;;;;;;;34.85;13.68;;;;;;;16.40;62.52;100561.03;5014947;28;20030;-66
2022/12/23 10:17:40;;;;;;;31.40;13.90;;;;;;;16.45;62.08;100547.50;4995013;28;20274;-67
2022/12/23 10:20:13;;;;;;;32.50;14.00;;;;;;;16.00;63.15;100540.09;4993326;28;20026;-67
2022/12/23 10:22:43;;;;;;;31.83;13.40;;;;;;;16.10;63.16;100533.88;4995176;28;20039;-66
2022/12/23 10:25:13;;;;;;;30.58;13.15;;;;;;;16.08;63.07;100541.47;4994690;28;20042;-65
2022/12/23 10:27:41;;;;;;;34.20;14.27;;;;;;;16.11;63.35;100535.50;4994239;28;20038;-66
2022/12/23 10:30:13;;;;;;;29.67;13.48;;;;;;;16.30;62.58;100531.19;4994698;28;20534;-66
2022/12/23 10:33:01;;;;;;;32.97;13.27;;;;;;;16.60;61.57;100529.34;5002308;28;20033;-67
2022/12/23 10:36:01;;;;;;;34.35;14.50;;;;;;;16.48;61.63;100528.78;5014274;28;20081;-68
2022/12/23 10:38:51;;;;;;;38.65;13.52;;;;;;;16.44;61.91;100527.69;5014358;28;20494;-68
2022/12/23 10:41:38;;;;;;;31.85;12.43;;;;;;;16.19;62.52;100516.00;5013824;28;20524;-67
2022/12/23 10:44:38;;;;;;;27.38;12.13;;;;;;;16.53;61.91;100508.97;5014063;28;20521;-68
2022/12/23 10:47:12;;;;;;;29.75;13.15;;;;;;;16.78;61.29;100510.88;5014091;28;20453;-68
2022/12/23 10:49:57;;;;;;;31.90;12.90;;;;;;;16.57;61.58;100505.44;5003102;28;20070;-68
2022/12/23 10:52:33;;;;;;;38.38;15.07;;;;;;;16.83;61.07;100508.94;4994299;28;20388;-66
2022/12/23 10:54:58;;;;;;;34.72;13.93;;;;;;;16.65;61.18;100501.38;4994121;28;20062;-67
2022/12/23 10:57:24;;;;;;;31.85;13.52;;;;;;;16.62;61.36;100489.19;4993934;28;20511;-66
2022/12/23 10:59:50;;;;;;;35.83;14.88;;;;;;;16.45;62.08;100488.59;5009129;28;20095;-67
2022/12/23 11:02:34;;;;;;;38.67;15.18;;;;;;;16.56;62.08;100486.75;5013210;28;20022;-66
2022/12/23 11:04:59;;;;;;;37.80;15.60;;;;;;;16.47;62.47;100489.16;4995671;28;20409;-66
2022/12/23 11:07:27;;;;;;;37.60;14.98;;;;;;;16.75;61.21;100482.38;5012905;28;20033;-66
2022/12/23 11:10:16;;;;;;;33.05;14.10;;;;;;;16.73;61.23;100473.69;5013276;28;20103;-67
2022/12/23 11:12:47;;;;;;;43.58;17.38;;;;;;;16.90;61.01;100473.38;5013236;28;20092;-67
2022/12/23 11:15:28;;;;;;;41.85;15.70;;;;;;;16.55;61.60;100469.66;5013188;28;20034;-66
2022/12/23 11:18:01;;;;;;;40.22;14.88;;;;;;;16.80;61.42;100460.66;5013538;28;20388;-66
2022/12/23 11:20:27;;;;;;;38.58;15.55;;;;;;;16.38;62.63;100458.25;5013147;28;20046;-65
2022/12/23 11:23:00;;;;;;;42.90;15.80;;;;;;;16.62;62.03;100447.66;5011045;28;20112;-66
2022/12/23 11:25:30;;;;;;;40.85;16.17;;;;;;;16.38;62.72;100450.13;5012941;28;20056;-65
2022/12/23 11:28:10;;;;;;;48.78;16.63;;;;;;;16.65;61.86;100441.69;5013218;28;20058;-67
2022/12/23 11:31:13;;;;;;;41.73;16.30;;;;;;;16.44;62.67;100430.03;4993436;28;20034;-67
2022/12/23 11:34:00;;;;;;;44.88;16.73;;;;;;;16.51;62.18;100435.22;4993400;28;20035;-67
2022/12/23 11:36:27;;;;;;;49.78;16.25;;;;;;;16.37;62.26;100434.13;4993384;28;20042;-66
2022/12/23 11:39:11;;;;;;;44.10;15.65;;;;;;;16.33;62.86;100424.91;5003554;28;20117;-66
2022/12/23 11:41:41;;;;;;;42.92;16.50;;;;;;;16.18;63.05;100416.75;5010956;28;20077;-67
2022/12/23 11:44:27;;;;;;;41.35;15.15;;;;;;;16.29;62.99;100419.22;5009686;28;20068;-66
2022/12/23 11:46:53;;;;;;;40.35;15.38;;;;;;;16.69;61.48;100408.31;5005616;28;20045;-67
2022/12/23 11:49:21;;;;;;;39.47;15.90;;;;;;;16.88;61.27;100413.13;5007673;28;20069;-67
2022/12/23 11:52:01;;;;;;;38.22;15.85;;;;;;;16.85;61.25;100428.06;5004258;28;20060;-66